sensor_id;sensor_type;location;lat;lon;timestamp;temperature;humidity
8979;DHT22;4524;51.364;5.448;2023-05-31T00:01:57;13.00;99.90
8979;DHT22;4524;51.364;5.448;2023-05-31T00:04:25;13.00;99.90
8979;DHT22;4524;51.364;5.448;2023-05-31T00:06:53;13.00;99.90
8979;DHT22;4524;51.364;5.448;2023-05-31T00:09:21;13.00;99.90
8979;DHT22;4524;51.364;5.448;2023-05-31T00:11:49;13.00;99.90
8979;DHT22;4524;51.364;5.448;2023-05-31T00:14:17;13.00;99.90
8979;DHT22;4524;51.364;5.448;2023-05-31T00:16:44;13.00;99.90
8979;DHT22;4524;51.364;5.448;2023-05-31T00:19:34;13.00;99.90
8979;DHT22;4524;51.364;5.448;2023-05-31T00:22:02;13.00;99.90
8979;DHT22;4524;51.364;5.448;2023-05-31T00:24:30;13.00;99.90
8979;DHT22;4524;51.364;5.448;2023-05-31T00:26:58;13.00;99.90
8979;DHT22;4524;51.364;5.448;2023-05-31T00:29:26;12.90;99.90
8979;DHT22;4524;51.364;5.448;2023-05-31T00:32:13;12.90;99.90
8979;DHT22;4524;51.364;5.448;2023-05-31T00:34:42;12.90;99.90
8979;DHT22;4524;51.364;5.448;2023-05-31T00:37:10;12.80;99.90
8979;DHT22;4524;51.364;5.448;2023-05-31T00:39:38;12.90;99.90
8979;DHT22;4524;51.364;5.448;2023-05-31T00:42:25;12.80;99.90
8979;DHT22;4524;51.364;5.448;2023-05-31T00:44:53;12.80;99.90
8979;DHT22;4524;51.364;5.448;2023-05-31T00:47:21;12.80;99.90
8979;DHT22;4524;51.364;5.448;2023-05-31T00:49:51;12.70;99.90
8979;DHT22;4524;51.364;5.448;2023-05-31T00:52:19;12.70;99.90
8979;DHT22;4524;51.364;5.448;2023-05-31T00:54:47;12.70;99.90
8979;DHT22;4524;51.364;5.448;2023-05-31T00:57:16;12.70;99.90
8979;DHT22;4524;51.364;5.448;2023-05-31T00:59:44;12.70;99.90
8979;DHT22;4524;51.364;5.448;2023-05-31T01:02:12;12.70;99.90
8979;DHT22;4524;51.364;5.448;2023-05-31T01:04:44;12.70;99.90
8979;DHT22;4524;51.364;5.448;2023-05-31T01:07:13;12.60;99.90
8979;DHT22;4524;51.364;5.448;2023-05-31T01:09:41;12.60;99.90
8979;DHT22;4524;51.364;5.448;2023-05-31T01:12:16;12.60;99.90
8979;DHT22;4524;51.364;5.448;2023-05-31T01:14:59;12.60;99.90
8979;DHT22;4524;51.364;5.448;2023-05-31T01:17:31;12.60;99.90
8979;DHT22;4524;51.364;5.448;2023-05-31T01:20:03;12.60;99.90
8979;DHT22;4524;51.364;5.448;2023-05-31T01:22:44;12.60;99.90
8979;DHT22;4524;51.364;5.448;2023-05-31T01:25:26;12.60;99.90
8979;DHT22;4524;51.364;5.448;2023-05-31T01:27:59;12.60;99.90
8979;DHT22;4524;51.364;5.448;2023-05-31T01:30:28;12.60;99.90
8979;DHT22;4524;51.364;5.448;2023-05-31T01:32:59;12.60;99.90
8979;DHT22;4524;51.364;5.448;2023-05-31T01:35:29;12.50;99.90
8979;DHT22;4524;51.364;5.448;2023-05-31T01:37:57;12.50;99.90
8979;DHT22;4524;51.364;5.448;2023-05-31T01:40:27;12.50;99.90
8979;DHT22;4524;51.364;5.448;2023-05-31T01:43:00;12.50;99.90
8979;DHT22;4524;51.364;5.448;2023-05-31T01:45:30;12.50;99.90
8979;DHT22;4524;51.364;5.448;2023-05-31T01:48:00;12.50;99.90
8979;DHT22;4524;51.364;5.448;2023-05-31T01:50:49;12.50;99.90
8979;DHT22;4524;51.364;5.448;2023-05-31T01:53:18;12.50;99.90
8979;DHT22;4524;51.364;5.448;2023-05-31T01:55:47;12.50;99.90
8979;DHT22;4524;51.364;5.448;2023-05-31T01:58:17;12.40;99.90
8979;DHT22;4524;51.364;5.448;2023-05-31T02:00:45;12.40;99.90
8979;DHT22;4524;51.364;5.448;2023-05-31T02:03:13;12.40;99.90
8979;DHT22;4524;51.364;5.448;2023-05-31T02:05:55;12.40;99.90
8979;DHT22;4524;51.364;5.448;2023-05-31T02:08:23;12.40;99.90
8979;DHT22;4524;51.364;5.448;2023-05-31T02:10:52;12.40;99.90
8979;DHT22;4524;51.364;5.448;2023-05-31T02:13:26;12.30;99.90
8979;DHT22;4524;51.364;5.448;2023-05-31T02:15:55;12.30;99.90
8979;DHT22;4524;51.364;5.448;2023-05-31T02:18:23;12.30;99.90
8979;DHT22;4524;51.364;5.448;2023-05-31T02:20:53;12.30;99.90
8979;DHT22;4524;51.364;5.448;2023-05-31T02:23:22;12.20;99.90
8979;DHT22;4524;51.364;5.448;2023-05-31T02:25:50;12.20;1.00
8979;DHT22;4524;51.364;5.448;2023-05-31T02:28:18;12.20;1.00
8979;DHT22;4524;51.364;5.448;2023-05-31T02:30:55;12.10;1.00
8979;DHT22;4524;51.364;5.448;2023-05-31T02:33:23;12.10;1.00
8979;DHT22;4524;51.364;5.448;2023-05-31T02:35:52;12.10;1.00
8979;DHT22;4524;51.364;5.448;2023-05-31T02:38:20;12.00;1.00
8979;DHT22;4524;51.364;5.448;2023-05-31T02:40:48;12.00;1.00
8979;DHT22;4524;51.364;5.448;2023-05-31T02:43:17;12.00;1.00
8979;DHT22;4524;51.364;5.448;2023-05-31T02:45:45;12.00;1.00
8979;DHT22;4524;51.364;5.448;2023-05-31T02:48:14;12.00;1.00
8979;DHT22;4524;51.364;5.448;2023-05-31T02:50:42;11.90;1.00
8979;DHT22;4524;51.364;5.448;2023-05-31T02:53:22;11.90;1.00
8979;DHT22;4524;51.364;5.448;2023-05-31T02:55:55;11.90;1.00
8979;DHT22;4524;51.364;5.448;2023-05-31T02:58:43;11.90;1.00
8979;DHT22;4524;51.364;5.448;2023-05-31T03:01:30;11.80;1.00
8979;DHT22;4524;51.364;5.448;2023-05-31T03:04:15;11.80;1.00
8979;DHT22;4524;51.364;5.448;2023-05-31T03:06:43;11.80;1.00
8979;DHT22;4524;51.364;5.448;2023-05-31T03:09:14;11.80;1.00
8979;DHT22;4524;51.364;5.448;2023-05-31T03:11:43;11.80;1.00
8979;DHT22;4524;51.364;5.448;2023-05-31T03:14:12;11.80;1.00
8979;DHT22;4524;51.364;5.448;2023-05-31T03:16:47;11.80;1.00
8979;DHT22;4524;51.364;5.448;2023-05-31T03:19:17;11.80;1.00
8979;DHT22;4524;51.364;5.448;2023-05-31T03:21:49;11.80;1.00
8979;DHT22;4524;51.364;5.448;2023-05-31T03:24:17;11.70;1.00
8979;DHT22;4524;51.364;5.448;2023-05-31T03:26:47;11.70;1.00
8979;DHT22;4524;51.364;5.448;2023-05-31T03:29:16;11.70;1.00
8979;DHT22;4524;51.364;5.448;2023-05-31T03:31:46;11.70;1.00
8979;DHT22;4524;51.364;5.448;2023-05-31T03:34:14;11.70;1.00
8979;DHT22;4524;51.364;5.448;2023-05-31T03:36:44;11.70;1.00
8979;DHT22;4524;51.364;5.448;2023-05-31T03:39:36;11.60;1.00
8979;DHT22;4524;51.364;5.448;2023-05-31T03:42:05;11.60;1.00
8979;DHT22;4524;51.364;5.448;2023-05-31T03:44:52;11.60;1.00
8979;DHT22;4524;51.364;5.448;2023-05-31T03:47:20;11.70;1.00
8979;DHT22;4524;51.364;5.448;2023-05-31T03:49:48;11.70;1.00
8979;DHT22;4524;51.364;5.448;2023-05-31T03:52:17;11.50;1.00
8979;DHT22;4524;51.364;5.448;2023-05-31T03:54:46;11.60;1.00
8979;DHT22;4524;51.364;5.448;2023-05-31T03:57:14;11.60;1.00
8979;DHT22;4524;51.364;5.448;2023-05-31T03:59:42;11.60;1.00
8979;DHT22;4524;51.364;5.448;2023-05-31T04:02:11;11.50;10.70
8979;DHT22;4524;51.364;5.448;2023-05-31T04:04:39;11.50;21.50
8979;DHT22;4524;51.364;5.448;2023-05-31T04:07:07;11.50;17.90
8979;DHT22;4524;51.364;5.448;2023-05-31T04:09:37;11.60;15.20
8979;DHT22;4524;51.364;5.448;2023-05-31T04:12:06;11.60;19.00
8979;DHT22;4524;51.364;5.448;2023-05-31T04:14:34;11.70;3.10
8979;DHT22;4524;51.364;5.448;2023-05-31T04:17:04;11.70;11.10
8979;DHT22;4524;51.364;5.448;2023-05-31T04:19:32;12.10;1.00
8979;DHT22;4524;51.364;5.448;2023-05-31T04:22:00;12.00;1.00
8979;DHT22;4524;51.364;5.448;2023-05-31T04:24:28;12.20;1.00
8979;DHT22;4524;51.364;5.448;2023-05-31T04:26:57;12.30;1.00
8979;DHT22;4524;51.364;5.448;2023-05-31T04:29:26;12.30;1.00
8979;DHT22;4524;51.364;5.448;2023-05-31T04:31:54;12.30;1.00
8979;DHT22;4524;51.364;5.448;2023-05-31T04:34:22;12.10;1.00
8979;DHT22;4524;51.364;5.448;2023-05-31T04:36:51;12.10;1.00
8979;DHT22;4524;51.364;5.448;2023-05-31T04:39:25;12.10;1.00
8979;DHT22;4524;51.364;5.448;2023-05-31T04:41:58;12.00;1.00
8979;DHT22;4524;51.364;5.448;2023-05-31T04:44:27;11.90;1.00
8979;DHT22;4524;51.364;5.448;2023-05-31T04:46:55;12.00;1.00
8979;DHT22;4524;51.364;5.448;2023-05-31T04:49:24;12.20;1.00
8979;DHT22;4524;51.364;5.448;2023-05-31T04:51:57;12.20;1.00
8979;DHT22;4524;51.364;5.448;2023-05-31T04:54:26;12.10;1.00
8979;DHT22;4524;51.364;5.448;2023-05-31T04:56:54;12.00;1.00
8979;DHT22;4524;51.364;5.448;2023-05-31T04:59:23;12.20;1.00
8979;DHT22;4524;51.364;5.448;2023-05-31T05:01:52;12.20;1.00
8979;DHT22;4524;51.364;5.448;2023-05-31T05:04:20;12.30;1.00
8979;DHT22;4524;51.364;5.448;2023-05-31T05:06:49;12.60;1.00
8979;DHT22;4524;51.364;5.448;2023-05-31T05:09:17;12.70;1.00
8979;DHT22;4524;51.364;5.448;2023-05-31T05:11:45;12.60;1.00
8979;DHT22;4524;51.364;5.448;2023-05-31T05:14:34;12.70;1.00
8979;DHT22;4524;51.364;5.448;2023-05-31T05:17:02;12.80;1.00
8979;DHT22;4524;51.364;5.448;2023-05-31T05:19:31;12.70;1.00
8979;DHT22;4524;51.364;5.448;2023-05-31T05:22:00;12.90;1.00
8979;DHT22;4524;51.364;5.448;2023-05-31T05:24:28;13.00;1.00
8979;DHT22;4524;51.364;5.448;2023-05-31T05:26:56;13.00;1.00
8979;DHT22;4524;51.364;5.448;2023-05-31T05:29:24;13.20;1.00
8979;DHT22;4524;51.364;5.448;2023-05-31T05:31:54;13.10;1.00
8979;DHT22;4524;51.364;5.448;2023-05-31T05:34:22;13.00;1.00
8979;DHT22;4524;51.364;5.448;2023-05-31T05:36:50;13.10;1.00
8979;DHT22;4524;51.364;5.448;2023-05-31T05:39:19;13.00;1.00
8979;DHT22;4524;51.364;5.448;2023-05-31T05:41:48;13.20;1.00
8979;DHT22;4524;51.364;5.448;2023-05-31T05:44:16;13.30;1.00
8979;DHT22;4524;51.364;5.448;2023-05-31T05:46:44;13.50;99.90
8979;DHT22;4524;51.364;5.448;2023-05-31T05:49:14;13.50;99.90
8979;DHT22;4524;51.364;5.448;2023-05-31T05:51:45;13.70;99.90
8979;DHT22;4524;51.364;5.448;2023-05-31T05:54:13;13.60;99.90
8979;DHT22;4524;51.364;5.448;2023-05-31T05:56:41;13.80;99.90
8979;DHT22;4524;51.364;5.448;2023-05-31T05:59:09;13.80;99.90
8979;DHT22;4524;51.364;5.448;2023-05-31T06:01:53;14.00;99.90
8979;DHT22;4524;51.364;5.448;2023-05-31T06:04:24;14.10;99.90
8979;DHT22;4524;51.364;5.448;2023-05-31T06:06:52;14.30;99.90
8979;DHT22;4524;51.364;5.448;2023-05-31T06:09:20;14.20;99.90
8979;DHT22;4524;51.364;5.448;2023-05-31T06:11:49;14.20;99.90
8979;DHT22;4524;51.364;5.448;2023-05-31T06:14:17;14.30;99.90
8979;DHT22;4524;51.364;5.448;2023-05-31T06:16:49;14.30;99.90
8979;DHT22;4524;51.364;5.448;2023-05-31T06:19:17;14.40;99.90
8979;DHT22;4524;51.364;5.448;2023-05-31T06:21:47;14.40;99.90
8979;DHT22;4524;51.364;5.448;2023-05-31T06:24:16;14.50;99.90
8979;DHT22;4524;51.364;5.448;2023-05-31T06:26:44;14.50;99.90
8979;DHT22;4524;51.364;5.448;2023-05-31T06:29:12;14.50;99.90
8979;DHT22;4524;51.364;5.448;2023-05-31T06:32:09;14.60;99.90
8979;DHT22;4524;51.364;5.448;2023-05-31T06:34:41;14.70;99.90
8979;DHT22;4524;51.364;5.448;2023-05-31T06:37:12;14.90;99.90
8979;DHT22;4524;51.364;5.448;2023-05-31T06:39:40;14.90;99.90
8979;DHT22;4524;51.364;5.448;2023-05-31T06:42:08;15.20;99.90
8979;DHT22;4524;51.364;5.448;2023-05-31T06:44:56;15.20;99.90
8979;DHT22;4524;51.364;5.448;2023-05-31T06:47:59;15.30;99.90
8979;DHT22;4524;51.364;5.448;2023-05-31T06:50:56;15.40;99.90
8979;DHT22;4524;51.364;5.448;2023-05-31T06:53:49;15.40;99.90
8979;DHT22;4524;51.364;5.448;2023-05-31T06:56:21;15.50;99.90
8979;DHT22;4524;51.364;5.448;2023-05-31T06:58:49;15.60;99.90
8979;DHT22;4524;51.364;5.448;2023-05-31T07:01:17;15.60;99.90
8979;DHT22;4524;51.364;5.448;2023-05-31T07:03:45;15.70;99.90
8979;DHT22;4524;51.364;5.448;2023-05-31T07:06:14;15.60;99.90
8979;DHT22;4524;51.364;5.448;2023-05-31T07:08:42;15.70;99.90
8979;DHT22;4524;51.364;5.448;2023-05-31T07:11:30;15.80;99.90
8979;DHT22;4524;51.364;5.448;2023-05-31T07:13:58;15.70;99.90
8979;DHT22;4524;51.364;5.448;2023-05-31T07:16:28;15.80;99.90
8979;DHT22;4524;51.364;5.448;2023-05-31T07:18:58;15.90;99.90
8979;DHT22;4524;51.364;5.448;2023-05-31T07:21:26;16.10;99.90
8979;DHT22;4524;51.364;5.448;2023-05-31T07:23:54;16.10;99.90
8979;DHT22;4524;51.364;5.448;2023-05-31T07:26:22;16.20;99.90
8979;DHT22;4524;51.364;5.448;2023-05-31T07:28:52;16.20;99.90
8979;DHT22;4524;51.364;5.448;2023-05-31T07:31:20;16.20;99.90
8979;DHT22;4524;51.364;5.448;2023-05-31T07:33:48;16.20;99.90
8979;DHT22;4524;51.364;5.448;2023-05-31T07:36:16;16.30;99.90
8979;DHT22;4524;51.364;5.448;2023-05-31T07:38:44;16.40;99.90
8979;DHT22;4524;51.364;5.448;2023-05-31T07:41:12;16.60;99.90
8979;DHT22;4524;51.364;5.448;2023-05-31T07:43:41;16.60;99.90
8979;DHT22;4524;51.364;5.448;2023-05-31T07:46:11;16.60;99.90
8979;DHT22;4524;51.364;5.448;2023-05-31T07:48:39;16.50;99.90
8979;DHT22;4524;51.364;5.448;2023-05-31T07:51:07;16.60;99.90
8979;DHT22;4524;51.364;5.448;2023-05-31T07:53:35;16.80;99.90
8979;DHT22;4524;51.364;5.448;2023-05-31T07:56:04;16.90;99.90
8979;DHT22;4524;51.364;5.448;2023-05-31T07:58:32;17.00;99.90
8979;DHT22;4524;51.364;5.448;2023-05-31T08:01:00;17.00;99.90
8979;DHT22;4524;51.364;5.448;2023-05-31T08:03:30;17.10;99.90
8979;DHT22;4524;51.364;5.448;2023-05-31T08:05:59;17.10;99.90
8979;DHT22;4524;51.364;5.448;2023-05-31T08:08:26;17.00;99.90
8979;DHT22;4524;51.364;5.448;2023-05-31T08:10:56;17.30;99.90
8979;DHT22;4524;51.364;5.448;2023-05-31T08:13:24;17.40;99.90
8979;DHT22;4524;51.364;5.448;2023-05-31T08:15:52;17.40;99.90
8979;DHT22;4524;51.364;5.448;2023-05-31T08:18:20;17.50;99.90
8979;DHT22;4524;51.364;5.448;2023-05-31T08:20:50;17.60;99.90
8979;DHT22;4524;51.364;5.448;2023-05-31T08:23:18;17.70;99.90
8979;DHT22;4524;51.364;5.448;2023-05-31T08:25:47;17.60;99.90
8979;DHT22;4524;51.364;5.448;2023-05-31T08:28:15;17.70;99.90
8979;DHT22;4524;51.364;5.448;2023-05-31T08:30:43;17.90;99.90
8979;DHT22;4524;51.364;5.448;2023-05-31T08:33:11;18.00;99.90
8979;DHT22;4524;51.364;5.448;2023-05-31T08:35:39;17.90;99.90
8979;DHT22;4524;51.364;5.448;2023-05-31T08:38:09;18.00;99.90
8979;DHT22;4524;51.364;5.448;2023-05-31T08:40:38;18.00;99.90
8979;DHT22;4524;51.364;5.448;2023-05-31T08:43:06;18.10;99.90
8979;DHT22;4524;51.364;5.448;2023-05-31T08:45:37;18.30;99.90
8979;DHT22;4524;51.364;5.448;2023-05-31T08:48:10;18.50;99.90
8979;DHT22;4524;51.364;5.448;2023-05-31T08:50:39;18.50;99.90
8979;DHT22;4524;51.364;5.448;2023-05-31T08:53:10;18.60;99.90
8979;DHT22;4524;51.364;5.448;2023-05-31T08:55:39;18.70;99.90
8979;DHT22;4524;51.364;5.448;2023-05-31T08:58:07;18.80;99.90
8979;DHT22;4524;51.364;5.448;2023-05-31T09:00:37;19.00;99.90
8979;DHT22;4524;51.364;5.448;2023-05-31T09:03:06;18.90;99.90
8979;DHT22;4524;51.364;5.448;2023-05-31T09:05:34;19.10;99.90
8979;DHT22;4524;51.364;5.448;2023-05-31T09:08:02;19.10;99.90
8979;DHT22;4524;51.364;5.448;2023-05-31T09:10:31;19.30;99.90
8979;DHT22;4524;51.364;5.448;2023-05-31T09:13:00;19.30;99.90
8979;DHT22;4524;51.364;5.448;2023-05-31T09:15:28;19.50;99.90
8979;DHT22;4524;51.364;5.448;2023-05-31T09:17:57;19.50;99.90
8979;DHT22;4524;51.364;5.448;2023-05-31T09:20:31;19.70;99.90
8979;DHT22;4524;51.364;5.448;2023-05-31T09:23:02;19.80;99.90
8979;DHT22;4524;51.364;5.448;2023-05-31T09:25:44;19.80;99.90
8979;DHT22;4524;51.364;5.448;2023-05-31T09:28:12;20.00;99.90
8979;DHT22;4524;51.364;5.448;2023-05-31T09:30:40;20.00;99.90
8979;DHT22;4524;51.364;5.448;2023-05-31T09:33:09;20.20;99.90
8979;DHT22;4524;51.364;5.448;2023-05-31T09:35:37;20.30;99.90
8979;DHT22;4524;51.364;5.448;2023-05-31T09:38:06;20.40;99.90
8979;DHT22;4524;51.364;5.448;2023-05-31T09:40:34;20.50;99.90
8979;DHT22;4524;51.364;5.448;2023-05-31T09:43:04;20.70;99.90
8979;DHT22;4524;51.364;5.448;2023-05-31T09:45:32;20.70;99.90
8979;DHT22;4524;51.364;5.448;2023-05-31T09:48:00;20.70;99.90
8979;DHT22;4524;51.364;5.448;2023-05-31T09:50:28;20.80;99.90
8979;DHT22;4524;51.364;5.448;2023-05-31T09:52:57;20.90;99.90
8979;DHT22;4524;51.364;5.448;2023-05-31T09:55:38;20.90;99.90
8979;DHT22;4524;51.364;5.448;2023-05-31T09:58:09;21.10;99.90
8979;DHT22;4524;51.364;5.448;2023-05-31T10:00:44;21.30;99.90
8979;DHT22;4524;51.364;5.448;2023-05-31T10:03:12;21.30;99.90
8979;DHT22;4524;51.364;5.448;2023-05-31T10:05:40;21.40;99.90
8979;DHT22;4524;51.364;5.448;2023-05-31T10:08:08;21.40;99.90
8979;DHT22;4524;51.364;5.448;2023-05-31T10:10:37;21.50;99.90
8979;DHT22;4524;51.364;5.448;2023-05-31T10:13:06;21.60;99.90
8979;DHT22;4524;51.364;5.448;2023-05-31T10:15:39;21.70;99.90
8979;DHT22;4524;51.364;5.448;2023-05-31T10:18:10;21.80;99.90
8979;DHT22;4524;51.364;5.448;2023-05-31T10:20:59;21.90;99.90
8979;DHT22;4524;51.364;5.448;2023-05-31T10:23:30;22.00;99.90
8979;DHT22;4524;51.364;5.448;2023-05-31T10:26:11;22.10;99.90
8979;DHT22;4524;51.364;5.448;2023-05-31T10:29:05;22.10;99.90
8979;DHT22;4524;51.364;5.448;2023-05-31T10:31:39;22.30;99.90
8979;DHT22;4524;51.364;5.448;2023-05-31T10:34:16;22.50;99.90
8979;DHT22;4524;51.364;5.448;2023-05-31T10:36:46;22.60;99.90
8979;DHT22;4524;51.364;5.448;2023-05-31T10:39:19;22.70;99.90
8979;DHT22;4524;51.364;5.448;2023-05-31T10:41:55;22.70;99.90
8979;DHT22;4524;51.364;5.448;2023-05-31T10:44:33;22.70;99.90
8979;DHT22;4524;51.364;5.448;2023-05-31T10:47:07;22.80;99.90
8979;DHT22;4524;51.364;5.448;2023-05-31T10:49:36;22.90;99.90
8979;DHT22;4524;51.364;5.448;2023-05-31T10:52:09;22.90;99.90
8979;DHT22;4524;51.364;5.448;2023-05-31T10:54:38;22.80;99.90
8979;DHT22;4524;51.364;5.448;2023-05-31T10:57:07;22.90;99.90
8979;DHT22;4524;51.364;5.448;2023-05-31T10:59:41;23.10;99.90
8979;DHT22;4524;51.364;5.448;2023-05-31T11:02:11;23.20;99.90
8979;DHT22;4524;51.364;5.448;2023-05-31T11:04:39;23.10;99.90
8979;DHT22;4524;51.364;5.448;2023-05-31T11:07:13;23.20;99.90
8979;DHT22;4524;51.364;5.448;2023-05-31T11:09:48;23.30;99.90
8979;DHT22;4524;51.364;5.448;2023-05-31T11:12:33;23.40;99.90
8979;DHT22;4524;51.364;5.448;2023-05-31T11:15:02;23.40;99.90
8979;DHT22;4524;51.364;5.448;2023-05-31T11:17:40;23.30;99.90
8979;DHT22;4524;51.364;5.448;2023-05-31T11:20:18;23.40;99.90
8979;DHT22;4524;51.364;5.448;2023-05-31T11:22:46;23.30;99.90
8979;DHT22;4524;51.364;5.448;2023-05-31T11:25:18;23.40;99.90
8979;DHT22;4524;51.364;5.448;2023-05-31T11:28:04;23.40;99.90
8979;DHT22;4524;51.364;5.448;2023-05-31T11:30:35;23.60;99.90
8979;DHT22;4524;51.364;5.448;2023-05-31T11:33:14;23.60;99.90
8979;DHT22;4524;51.364;5.448;2023-05-31T11:35:42;23.70;99.90
8979;DHT22;4524;51.364;5.448;2023-05-31T11:38:10;23.60;99.90
8979;DHT22;4524;51.364;5.448;2023-05-31T11:40:38;23.60;99.90
8979;DHT22;4524;51.364;5.448;2023-05-31T11:43:08;23.60;99.90
8979;DHT22;4524;51.364;5.448;2023-05-31T11:45:42;23.60;99.90
8979;DHT22;4524;51.364;5.448;2023-05-31T11:48:44;23.60;99.90
8979;DHT22;4524;51.364;5.448;2023-05-31T11:51:14;23.60;99.90
8979;DHT22;4524;51.364;5.448;2023-05-31T11:54:01;23.50;99.90
8979;DHT22;4524;51.364;5.448;2023-05-31T11:56:30;23.80;99.90
8979;DHT22;4524;51.364;5.448;2023-05-31T11:59:00;24.00;99.90
8979;DHT22;4524;51.364;5.448;2023-05-31T12:01:29;23.80;99.90
8979;DHT22;4524;51.364;5.448;2023-05-31T12:04:03;23.80;99.90
8979;DHT22;4524;51.364;5.448;2023-05-31T12:06:31;23.80;99.90
8979;DHT22;4524;51.364;5.448;2023-05-31T12:09:00;23.90;99.90
8979;DHT22;4524;51.364;5.448;2023-05-31T12:11:49;24.10;99.90
8979;DHT22;4524;51.364;5.448;2023-05-31T12:14:17;23.70;99.90
8979;DHT22;4524;51.364;5.448;2023-05-31T12:16:46;23.70;99.90
8979;DHT22;4524;51.364;5.448;2023-05-31T12:19:17;23.80;99.90
8979;DHT22;4524;51.364;5.448;2023-05-31T12:21:45;24.10;99.90
8979;DHT22;4524;51.364;5.448;2023-05-31T12:24:14;24.40;99.90
8979;DHT22;4524;51.364;5.448;2023-05-31T12:26:44;24.20;99.90
8979;DHT22;4524;51.364;5.448;2023-05-31T12:29:12;24.10;99.90
8979;DHT22;4524;51.364;5.448;2023-05-31T12:31:41;24.00;99.90
8979;DHT22;4524;51.364;5.448;2023-05-31T12:34:10;23.80;99.90
8979;DHT22;4524;51.364;5.448;2023-05-31T12:36:41;23.80;99.90
8979;DHT22;4524;51.364;5.448;2023-05-31T12:39:12;23.80;99.90
8979;DHT22;4524;51.364;5.448;2023-05-31T12:41:44;23.90;99.90
8979;DHT22;4524;51.364;5.448;2023-05-31T12:44:13;24.00;99.90
8979;DHT22;4524;51.364;5.448;2023-05-31T12:46:43;24.10;99.90
8979;DHT22;4524;51.364;5.448;2023-05-31T12:49:13;24.20;99.90
8979;DHT22;4524;51.364;5.448;2023-05-31T12:51:44;24.10;99.90
8979;DHT22;4524;51.364;5.448;2023-05-31T12:54:12;24.30;99.90
8979;DHT22;4524;51.364;5.448;2023-05-31T12:56:40;24.10;99.90
8979;DHT22;4524;51.364;5.448;2023-05-31T12:59:08;24.10;99.90
8979;DHT22;4524;51.364;5.448;2023-05-31T13:01:37;24.10;99.90
8979;DHT22;4524;51.364;5.448;2023-05-31T13:04:09;24.10;99.90
8979;DHT22;4524;51.364;5.448;2023-05-31T13:06:38;24.20;99.90
8979;DHT22;4524;51.364;5.448;2023-05-31T13:09:08;24.30;99.90
8979;DHT22;4524;51.364;5.448;2023-05-31T13:11:37;24.30;99.90
8979;DHT22;4524;51.364;5.448;2023-05-31T13:14:06;24.40;99.90
8979;DHT22;4524;51.364;5.448;2023-05-31T13:16:35;24.50;99.90
8979;DHT22;4524;51.364;5.448;2023-05-31T13:19:06;24.30;99.90
8979;DHT22;4524;51.364;5.448;2023-05-31T13:21:35;24.30;99.90
8979;DHT22;4524;51.364;5.448;2023-05-31T13:24:04;24.30;99.90
8979;DHT22;4524;51.364;5.448;2023-05-31T13:26:34;24.50;99.90
8979;DHT22;4524;51.364;5.448;2023-05-31T13:29:03;24.50;99.90
8979;DHT22;4524;51.364;5.448;2023-05-31T13:31:31;24.60;99.90
8979;DHT22;4524;51.364;5.448;2023-05-31T13:33:59;24.60;99.90
8979;DHT22;4524;51.364;5.448;2023-05-31T13:36:27;24.60;99.90
8979;DHT22;4524;51.364;5.448;2023-05-31T13:38:55;24.70;99.90
8979;DHT22;4524;51.364;5.448;2023-05-31T13:41:23;24.70;99.90
8979;DHT22;4524;51.364;5.448;2023-05-31T13:43:53;24.60;99.90
8979;DHT22;4524;51.364;5.448;2023-05-31T13:46:21;24.50;99.90
8979;DHT22;4524;51.364;5.448;2023-05-31T13:48:50;24.40;99.90
8979;DHT22;4524;51.364;5.448;2023-05-31T13:51:18;24.50;99.90
8979;DHT22;4524;51.364;5.448;2023-05-31T13:53:46;24.50;99.90
8979;DHT22;4524;51.364;5.448;2023-05-31T13:56:14;24.50;99.90
8979;DHT22;4524;51.364;5.448;2023-05-31T13:58:42;24.40;99.90
8979;DHT22;4524;51.364;5.448;2023-05-31T14:01:12;24.50;99.90
8979;DHT22;4524;51.364;5.448;2023-05-31T14:03:40;24.60;99.90
8979;DHT22;4524;51.364;5.448;2023-05-31T14:06:08;24.70;99.90
8979;DHT22;4524;51.364;5.448;2023-05-31T14:08:37;24.80;99.90
8979;DHT22;4524;51.364;5.448;2023-05-31T14:11:05;24.90;99.90
8979;DHT22;4524;51.364;5.448;2023-05-31T14:13:33;24.90;99.90
8979;DHT22;4524;51.364;5.448;2023-05-31T14:16:01;24.80;99.90
8979;DHT22;4524;51.364;5.448;2023-05-31T14:18:30;24.90;99.90
8979;DHT22;4524;51.364;5.448;2023-05-31T14:20:59;24.90;99.90
8979;DHT22;4524;51.364;5.448;2023-05-31T14:23:28;24.80;99.90
8979;DHT22;4524;51.364;5.448;2023-05-31T14:25:56;24.80;99.90
8979;DHT22;4524;51.364;5.448;2023-05-31T14:28:23;24.80;99.90
8979;DHT22;4524;51.364;5.448;2023-05-31T14:30:51;24.90;99.90
8979;DHT22;4524;51.364;5.448;2023-05-31T14:33:19;24.80;99.90
8979;DHT22;4524;51.364;5.448;2023-05-31T14:35:50;24.70;99.90
8979;DHT22;4524;51.364;5.448;2023-05-31T14:38:19;24.70;99.90
8979;DHT22;4524;51.364;5.448;2023-05-31T14:41:01;24.70;99.90
8979;DHT22;4524;51.364;5.448;2023-05-31T14:43:29;24.70;99.90
8979;DHT22;4524;51.364;5.448;2023-05-31T14:45:57;24.80;99.90
8979;DHT22;4524;51.364;5.448;2023-05-31T14:48:25;24.70;99.90
8979;DHT22;4524;51.364;5.448;2023-05-31T14:50:55;24.80;99.90
8979;DHT22;4524;51.364;5.448;2023-05-31T14:53:23;24.70;99.90
8979;DHT22;4524;51.364;5.448;2023-05-31T14:55:51;24.80;99.90
8979;DHT22;4524;51.364;5.448;2023-05-31T14:58:39;24.90;99.90
8979;DHT22;4524;51.364;5.448;2023-05-31T15:01:07;24.90;99.90
8979;DHT22;4524;51.364;5.448;2023-05-31T15:03:35;24.90;99.90
8979;DHT22;4524;51.364;5.448;2023-05-31T15:06:05;24.90;99.90
8979;DHT22;4524;51.364;5.448;2023-05-31T15:08:33;24.80;99.90
8979;DHT22;4524;51.364;5.448;2023-05-31T15:11:01;24.70;99.90
8979;DHT22;4524;51.364;5.448;2023-05-31T15:13:29;24.60;99.90
8979;DHT22;4524;51.364;5.448;2023-05-31T15:15:58;24.50;99.90
8979;DHT22;4524;51.364;5.448;2023-05-31T15:18:27;24.50;99.90
8979;DHT22;4524;51.364;5.448;2023-05-31T15:20:55;24.60;99.90
8979;DHT22;4524;51.364;5.448;2023-05-31T15:23:25;24.70;99.90
8979;DHT22;4524;51.364;5.448;2023-05-31T15:25:52;24.70;99.90
8979;DHT22;4524;51.364;5.448;2023-05-31T15:28:20;24.80;99.90
8979;DHT22;4524;51.364;5.448;2023-05-31T15:31:08;24.80;99.90
8979;DHT22;4524;51.364;5.448;2023-05-31T15:33:36;24.90;99.90
8979;DHT22;4524;51.364;5.448;2023-05-31T15:36:05;24.80;99.90
8979;DHT22;4524;51.364;5.448;2023-05-31T15:38:36;24.80;99.90
8979;DHT22;4524;51.364;5.448;2023-05-31T15:41:04;24.60;99.90
8979;DHT22;4524;51.364;5.448;2023-05-31T15:43:32;24.70;99.90
8979;DHT22;4524;51.364;5.448;2023-05-31T15:46:01;24.60;99.90
8979;DHT22;4524;51.364;5.448;2023-05-31T15:48:29;24.70;99.90
8979;DHT22;4524;51.364;5.448;2023-05-31T15:50:57;24.70;99.90
8979;DHT22;4524;51.364;5.448;2023-05-31T15:53:26;24.80;99.90
8979;DHT22;4524;51.364;5.448;2023-05-31T15:55:55;24.70;99.90
8979;DHT22;4524;51.364;5.448;2023-05-31T15:58:23;24.80;99.90
8979;DHT22;4524;51.364;5.448;2023-05-31T16:00:51;24.80;99.90
8979;DHT22;4524;51.364;5.448;2023-05-31T16:03:22;24.80;99.90
8979;DHT22;4524;51.364;5.448;2023-05-31T16:05:50;24.70;99.90
8979;DHT22;4524;51.364;5.448;2023-05-31T16:08:18;24.70;99.90
8979;DHT22;4524;51.364;5.448;2023-05-31T16:10:46;24.70;99.90
8979;DHT22;4524;51.364;5.448;2023-05-31T16:13:15;24.50;99.90
8979;DHT22;4524;51.364;5.448;2023-05-31T16:15:43;24.50;99.90
8979;DHT22;4524;51.364;5.448;2023-05-31T16:18:11;24.50;99.90
8979;DHT22;4524;51.364;5.448;2023-05-31T16:20:39;24.50;99.90
8979;DHT22;4524;51.364;5.448;2023-05-31T16:23:08;24.60;99.90
8979;DHT22;4524;51.364;5.448;2023-05-31T16:25:36;24.60;99.90
8979;DHT22;4524;51.364;5.448;2023-05-31T16:28:04;24.40;99.90